sensor_id;sensor_type;location;lat;lon;timestamp;pressure;altitude;pressure_sealevel;temperature;humidity
10921;BME280;5513;50.580;8.818;2023-05-29T00:00:10;99260.28;;;18.04;98.67
10921;BME280;5513;50.580;8.818;2023-05-29T00:02:40;99263.09;;;17.64;100.00
10921;BME280;5513;50.580;8.818;2023-05-29T00:05:11;99264.50;;;17.49;100.00
10921;BME280;5513;50.580;8.818;2023-05-29T00:07:40;99266.44;;;17.37;100.00
10921;BME280;5513;50.580;8.818;2023-05-29T00:10:10;99266.88;;;17.32;100.00
10921;BME280;5513;50.580;8.818;2023-05-29T00:12:39;99271.91;;;17.16;100.00
10921;BME280;5513;50.580;8.818;2023-05-29T00:15:10;99275.44;;;17.26;100.00
10921;BME280;5513;50.580;8.818;2023-05-29T00:17:39;99275.28;;;17.08;100.00
10921;BME280;5513;50.580;8.818;2023-05-29T00:20:11;99272.06;;;17.24;100.00
10921;BME280;5513;50.580;8.818;2023-05-29T00:22:40;99265.88;;;17.24;100.00
10921;BME280;5513;50.580;8.818;2023-05-29T00:25:08;99260.78;;;17.21;100.00
10921;BME280;5513;50.580;8.818;2023-05-29T00:27:37;99259.81;;;17.22;100.00
10921;BME280;5513;50.580;8.818;2023-05-29T00:30:06;99257.66;;;17.15;100.00
10921;BME280;5513;50.580;8.818;2023-05-29T00:32:36;99251.72;;;17.02;100.00
10921;BME280;5513;50.580;8.818;2023-05-29T00:35:05;99261.75;;;17.10;100.00
10921;BME280;5513;50.580;8.818;2023-05-29T00:37:34;99254.72;;;17.09;100.00
10921;BME280;5513;50.580;8.818;2023-05-29T00:40:03;99269.94;;;17.08;100.00
10921;BME280;5513;50.580;8.818;2023-05-29T00:42:32;99263.56;;;17.00;100.00
10921;BME280;5513;50.580;8.818;2023-05-29T00:45:00;99259.16;;;16.89;100.00
10921;BME280;5513;50.580;8.818;2023-05-29T00:47:29;99260.31;;;17.06;100.00
10921;BME280;5513;50.580;8.818;2023-05-29T00:49:59;99270.22;;;16.75;100.00
10921;BME280;5513;50.580;8.818;2023-05-29T00:52:29;99269.97;;;16.57;100.00
10921;BME280;5513;50.580;8.818;2023-05-29T00:54:58;99267.16;;;16.58;100.00
10921;BME280;5513;50.580;8.818;2023-05-29T00:57:28;99264.31;;;16.29;100.00
10921;BME280;5513;50.580;8.818;2023-05-29T00:59:57;99272.19;;;16.21;100.00
10921;BME280;5513;50.580;8.818;2023-05-29T01:02:27;99270.88;;;16.16;100.00
10921;BME280;5513;50.580;8.818;2023-05-29T01:04:58;99268.78;;;15.98;100.00
10921;BME280;5513;50.580;8.818;2023-05-29T01:07:27;99271.78;;;15.84;100.00
10921;BME280;5513;50.580;8.818;2023-05-29T01:09:58;99269.53;;;15.68;100.00
10921;BME280;5513;50.580;8.818;2023-05-29T01:12:34;99271.50;;;15.55;100.00
10921;BME280;5513;50.580;8.818;2023-05-29T01:15:15;99265.75;;;15.71;100.00
10921;BME280;5513;50.580;8.818;2023-05-29T01:17:55;99275.97;;;15.66;100.00
10921;BME280;5513;50.580;8.818;2023-05-29T01:20:35;99277.19;;;15.51;100.00
10921;BME280;5513;50.580;8.818;2023-05-29T01:23:38;99268.75;;;15.34;100.00
10921;BME280;5513;50.580;8.818;2023-05-29T01:26:21;99267.28;;;15.41;100.00
10921;BME280;5513;50.580;8.818;2023-05-29T01:28:57;99276.38;;;15.39;100.00
10921;BME280;5513;50.580;8.818;2023-05-29T01:31:28;99277.50;;;15.36;100.00
10921;BME280;5513;50.580;8.818;2023-05-29T01:33:59;99277.94;;;15.41;100.00
10921;BME280;5513;50.580;8.818;2023-05-29T01:36:28;99277.28;;;15.28;100.00
10921;BME280;5513;50.580;8.818;2023-05-29T01:39:00;99275.31;;;15.30;100.00
10921;BME280;5513;50.580;8.818;2023-05-29T01:41:29;99276.41;;;15.28;100.00
10921;BME280;5513;50.580;8.818;2023-05-29T01:43:59;99277.53;;;15.25;100.00
10921;BME280;5513;50.580;8.818;2023-05-29T01:46:28;99285.63;;;15.24;100.00
10921;BME280;5513;50.580;8.818;2023-05-29T01:48:56;99292.03;;;15.32;100.00
10921;BME280;5513;50.580;8.818;2023-05-29T01:51:25;99280.03;;;15.38;100.00
10921;BME280;5513;50.580;8.818;2023-05-29T01:53:53;99276.56;;;15.26;100.00
10921;BME280;5513;50.580;8.818;2023-05-29T01:56:22;99272.81;;;14.95;100.00
10921;BME280;5513;50.580;8.818;2023-05-29T01:58:51;99272.13;;;14.82;100.00
10921;BME280;5513;50.580;8.818;2023-05-29T02:01:21;99270.16;;;14.84;100.00
10921;BME280;5513;50.580;8.818;2023-05-29T02:03:50;99271.16;;;14.72;100.00
10921;BME280;5513;50.580;8.818;2023-05-29T02:06:19;99271.41;;;14.80;100.00
10921;BME280;5513;50.580;8.818;2023-05-29T02:08:48;99264.81;;;14.39;100.00
10921;BME280;5513;50.580;8.818;2023-05-29T02:11:16;99265.28;;;14.44;100.00
10921;BME280;5513;50.580;8.818;2023-05-29T02:13:44;99266.72;;;14.37;100.00
10921;BME280;5513;50.580;8.818;2023-05-29T02:16:12;99270.72;;;14.09;100.00
10921;BME280;5513;50.580;8.818;2023-05-29T02:18:42;99263.66;;;14.08;100.00
10921;BME280;5513;50.580;8.818;2023-05-29T02:21:11;99262.84;;;14.19;100.00
10921;BME280;5513;50.580;8.818;2023-05-29T02:23:39;99260.94;;;14.32;100.00
10921;BME280;5513;50.580;8.818;2023-05-29T02:26:08;99263.78;;;14.18;100.00
10921;BME280;5513;50.580;8.818;2023-05-29T02:28:36;99272.06;;;14.37;100.00
10921;BME280;5513;50.580;8.818;2023-05-29T02:31:05;99269.38;;;14.26;100.00
10921;BME280;5513;50.580;8.818;2023-05-29T02:33:33;99273.31;;;13.98;100.00
10921;BME280;5513;50.580;8.818;2023-05-29T02:36:04;99271.13;;;13.92;100.00
10921;BME280;5513;50.580;8.818;2023-05-29T02:38:38;99276.94;;;13.97;100.00
10921;BME280;5513;50.580;8.818;2023-05-29T02:41:07;99281.34;;;14.09;100.00
10921;BME280;5513;50.580;8.818;2023-05-29T02:43:35;99283.59;;;13.91;100.00
10921;BME280;5513;50.580;8.818;2023-05-29T02:46:04;99283.13;;;13.97;100.00
10921;BME280;5513;50.580;8.818;2023-05-29T02:48:32;99285.81;;;14.09;100.00
10921;BME280;5513;50.580;8.818;2023-05-29T02:51:03;99278.16;;;13.93;100.00
10921;BME280;5513;50.580;8.818;2023-05-29T02:53:31;99287.28;;;14.13;100.00
10921;BME280;5513;50.580;8.818;2023-05-29T02:55:59;99277.75;;;14.21;100.00
10921;BME280;5513;50.580;8.818;2023-05-29T02:58:28;99286.44;;;14.12;100.00
10921;BME280;5513;50.580;8.818;2023-05-29T03:00:57;99282.81;;;14.13;100.00
10921;BME280;5513;50.580;8.818;2023-05-29T03:03:26;99288.13;;;14.13;100.00
10921;BME280;5513;50.580;8.818;2023-05-29T03:05:55;99288.41;;;13.86;100.00
10921;BME280;5513;50.580;8.818;2023-05-29T03:08:25;99283.63;;;14.02;100.00
10921;BME280;5513;50.580;8.818;2023-05-29T03:10:54;99293.47;;;14.13;100.00
10921;BME280;5513;50.580;8.818;2023-05-29T03:13:23;99291.06;;;14.21;100.00
10921;BME280;5513;50.580;8.818;2023-05-29T03:15:52;99295.03;;;14.16;100.00
10921;BME280;5513;50.580;8.818;2023-05-29T03:18:23;99295.44;;;14.22;100.00
10921;BME280;5513;50.580;8.818;2023-05-29T03:20:52;99292.44;;;13.92;100.00
10921;BME280;5513;50.580;8.818;2023-05-29T03:23:21;99293.84;;;13.85;100.00
10921;BME280;5513;50.580;8.818;2023-05-29T03:25:54;99296.44;;;13.97;100.00
10921;BME280;5513;50.580;8.818;2023-05-29T03:28:22;99304.66;;;13.94;100.00
10921;BME280;5513;50.580;8.818;2023-05-29T03:30:50;99299.59;;;13.91;100.00
10921;BME280;5513;50.580;8.818;2023-05-29T03:33:20;99309.22;;;14.16;100.00
10921;BME280;5513;50.580;8.818;2023-05-29T03:35:48;99311.25;;;14.13;100.00
10921;BME280;5513;50.580;8.818;2023-05-29T03:38:17;99316.03;;;13.96;100.00
10921;BME280;5513;50.580;8.818;2023-05-29T03:40:45;99315.88;;;13.87;100.00
10921;BME280;5513;50.580;8.818;2023-05-29T03:43:16;99318.88;;;14.17;100.00
10921;BME280;5513;50.580;8.818;2023-05-29T03:45:44;99323.78;;;14.35;100.00
10921;BME280;5513;50.580;8.818;2023-05-29T03:48:15;99327.88;;;14.27;100.00
10921;BME280;5513;50.580;8.818;2023-05-29T03:50:44;99323.53;;;14.26;100.00
10921;BME280;5513;50.580;8.818;2023-05-29T03:53:13;99326.56;;;14.22;100.00
10921;BME280;5513;50.580;8.818;2023-05-29T03:55:41;99330.22;;;14.43;100.00
10921;BME280;5513;50.580;8.818;2023-05-29T03:58:10;99335.50;;;14.21;100.00
10921;BME280;5513;50.580;8.818;2023-05-29T04:00:40;99338.50;;;14.16;100.00
10921;BME280;5513;50.580;8.818;2023-05-29T04:03:08;99345.78;;;14.14;100.00
10921;BME280;5513;50.580;8.818;2023-05-29T04:05:38;99350.78;;;14.19;100.00
10921;BME280;5513;50.580;8.818;2023-05-29T04:08:06;99355.72;;;14.23;100.00
10921;BME280;5513;50.580;8.818;2023-05-29T04:10:41;99352.75;;;14.04;100.00
10921;BME280;5513;50.580;8.818;2023-05-29T04:13:10;99353.16;;;14.11;100.00
10921;BME280;5513;50.580;8.818;2023-05-29T04:15:40;99364.09;;;13.95;100.00
10921;BME280;5513;50.580;8.818;2023-05-29T04:18:09;99366.53;;;13.98;100.00
10921;BME280;5513;50.580;8.818;2023-05-29T04:20:37;99365.34;;;14.02;100.00
10921;BME280;5513;50.580;8.818;2023-05-29T04:23:05;99374.19;;;14.02;100.00
10921;BME280;5513;50.580;8.818;2023-05-29T04:25:35;99381.09;;;14.05;100.00
10921;BME280;5513;50.580;8.818;2023-05-29T04:28:04;99382.09;;;14.15;100.00
10921;BME280;5513;50.580;8.818;2023-05-29T04:30:32;99378.44;;;14.05;100.00
10921;BME280;5513;50.580;8.818;2023-05-29T04:33:03;99383.94;;;14.26;100.00
10921;BME280;5513;50.580;8.818;2023-05-29T04:35:31;99385.28;;;14.20;100.00
10921;BME280;5513;50.580;8.818;2023-05-29T04:37:59;99391.63;;;14.07;100.00
10921;BME280;5513;50.580;8.818;2023-05-29T04:40:28;99399.13;;;14.01;100.00
10921;BME280;5513;50.580;8.818;2023-05-29T04:42:58;99392.75;;;14.15;100.00
10921;BME280;5513;50.580;8.818;2023-05-29T04:45:29;99392.59;;;14.29;100.00
10921;BME280;5513;50.580;8.818;2023-05-29T04:47:57;99397.06;;;14.29;100.00
10921;BME280;5513;50.580;8.818;2023-05-29T04:50:28;99397.63;;;14.45;100.00
10921;BME280;5513;50.580;8.818;2023-05-29T04:52:57;99399.13;;;14.37;100.00
10921;BME280;5513;50.580;8.818;2023-05-29T04:55:26;99399.38;;;14.33;100.00
10921;BME280;5513;50.580;8.818;2023-05-29T04:57:54;99401.19;;;14.33;100.00
10921;BME280;5513;50.580;8.818;2023-05-29T05:00:22;99406.16;;;14.38;100.00
10921;BME280;5513;50.580;8.818;2023-05-29T05:02:52;99403.00;;;14.32;100.00
10921;BME280;5513;50.580;8.818;2023-05-29T05:05:20;99398.56;;;14.44;100.00
10921;BME280;5513;50.580;8.818;2023-05-29T05:07:50;99403.47;;;14.38;100.00
10921;BME280;5513;50.580;8.818;2023-05-29T05:10:18;99407.72;;;14.64;100.00
10921;BME280;5513;50.580;8.818;2023-05-29T05:12:46;99412.00;;;14.78;100.00
10921;BME280;5513;50.580;8.818;2023-05-29T05:15:15;99405.91;;;14.65;100.00
10921;BME280;5513;50.580;8.818;2023-05-29T05:17:43;99410.06;;;14.69;100.00
10921;BME280;5513;50.580;8.818;2023-05-29T05:20:13;99399.59;;;14.66;100.00
10921;BME280;5513;50.580;8.818;2023-05-29T05:22:42;99396.72;;;14.69;100.00
10921;BME280;5513;50.580;8.818;2023-05-29T05:25:11;99383.66;;;14.88;100.00
10921;BME280;5513;50.580;8.818;2023-05-29T05:27:41;99389.59;;;14.80;100.00
10921;BME280;5513;50.580;8.818;2023-05-29T05:30:09;99384.38;;;14.90;100.00
10921;BME280;5513;50.580;8.818;2023-05-29T05:32:38;99387.06;;;15.01;100.00
10921;BME280;5513;50.580;8.818;2023-05-29T05:35:07;99386.69;;;15.06;100.00
10921;BME280;5513;50.580;8.818;2023-05-29T05:37:38;99389.84;;;15.22;100.00
10921;BME280;5513;50.580;8.818;2023-05-29T05:40:07;99388.75;;;15.02;100.00
10921;BME280;5513;50.580;8.818;2023-05-29T05:42:37;99389.59;;;15.14;100.00
10921;BME280;5513;50.580;8.818;2023-05-29T05:45:07;99401.22;;;15.24;100.00
10921;BME280;5513;50.580;8.818;2023-05-29T05:47:35;99400.38;;;15.24;100.00
10921;BME280;5513;50.580;8.818;2023-05-29T05:50:05;99401.97;;;15.26;100.00
10921;BME280;5513;50.580;8.818;2023-05-29T05:52:34;99404.88;;;15.34;100.00
10921;BME280;5513;50.580;8.818;2023-05-29T05:55:02;99399.53;;;15.45;100.00
10921;BME280;5513;50.580;8.818;2023-05-29T05:57:31;99409.13;;;15.48;100.00
10921;BME280;5513;50.580;8.818;2023-05-29T06:00:02;99410.56;;;15.74;100.00
10921;BME280;5513;50.580;8.818;2023-05-29T06:02:33;99412.97;;;15.78;100.00
10921;BME280;5513;50.580;8.818;2023-05-29T06:05:01;99408.25;;;15.70;100.00
10921;BME280;5513;50.580;8.818;2023-05-29T06:07:30;99412.81;;;15.90;100.00
10921;BME280;5513;50.580;8.818;2023-05-29T06:09:58;99406.66;;;15.79;100.00
10921;BME280;5513;50.580;8.818;2023-05-29T06:12:30;99414.06;;;15.86;100.00
10921;BME280;5513;50.580;8.818;2023-05-29T06:14:58;99414.50;;;16.02;100.00
10921;BME280;5513;50.580;8.818;2023-05-29T06:17:28;99416.06;;;16.05;100.00
10921;BME280;5513;50.580;8.818;2023-05-29T06:19:56;99416.28;;;16.13;100.00
10921;BME280;5513;50.580;8.818;2023-05-29T06:22:25;99416.59;;;16.20;100.00
10921;BME280;5513;50.580;8.818;2023-05-29T06:24:53;99426.22;;;16.11;100.00
10921;BME280;5513;50.580;8.818;2023-05-29T06:27:21;99423.91;;;16.18;100.00
10921;BME280;5513;50.580;8.818;2023-05-29T06:29:52;99421.53;;;16.36;100.00
10921;BME280;5513;50.580;8.818;2023-05-29T06:32:20;99425.28;;;16.44;100.00
10921;BME280;5513;50.580;8.818;2023-05-29T06:34:50;99436.38;;;16.60;100.00
10921;BME280;5513;50.580;8.818;2023-05-29T06:37:18;99440.91;;;16.81;100.00
10921;BME280;5513;50.580;8.818;2023-05-29T06:39:46;99440.13;;;16.58;100.00
10921;BME280;5513;50.580;8.818;2023-05-29T06:42:15;99436.34;;;16.72;100.00
10921;BME280;5513;50.580;8.818;2023-05-29T06:44:44;99441.44;;;16.75;100.00
10921;BME280;5513;50.580;8.818;2023-05-29T06:47:14;99445.81;;;16.65;100.00
10921;BME280;5513;50.580;8.818;2023-05-29T06:49:42;99451.16;;;16.76;100.00
10921;BME280;5513;50.580;8.818;2023-05-29T06:52:12;99448.41;;;16.87;100.00
10921;BME280;5513;50.580;8.818;2023-05-29T06:54:40;99447.41;;;16.88;100.00
10921;BME280;5513;50.580;8.818;2023-05-29T06:57:08;99454.78;;;16.96;100.00
10921;BME280;5513;50.580;8.818;2023-05-29T06:59:37;99454.00;;;17.05;100.00
10921;BME280;5513;50.580;8.818;2023-05-29T07:02:07;99456.75;;;17.14;100.00
10921;BME280;5513;50.580;8.818;2023-05-29T07:04:35;99458.38;;;17.06;100.00
10921;BME280;5513;50.580;8.818;2023-05-29T07:07:04;99455.69;;;17.06;100.00
10921;BME280;5513;50.580;8.818;2023-05-29T07:09:34;99464.88;;;17.34;100.00
10921;BME280;5513;50.580;8.818;2023-05-29T07:12:05;99454.31;;;17.32;100.00
10921;BME280;5513;50.580;8.818;2023-05-29T07:14:33;99459.13;;;17.38;100.00
10921;BME280;5513;50.580;8.818;2023-05-29T07:17:01;99459.91;;;17.60;100.00
10921;BME280;5513;50.580;8.818;2023-05-29T07:19:30;99457.59;;;17.45;100.00
10921;BME280;5513;50.580;8.818;2023-05-29T07:21:59;99456.03;;;17.43;100.00
10921;BME280;5513;50.580;8.818;2023-05-29T07:24:27;99452.19;;;17.66;100.00
10921;BME280;5513;50.580;8.818;2023-05-29T07:26:57;99449.59;;;17.86;100.00
10921;BME280;5513;50.580;8.818;2023-05-29T07:29:25;99448.00;;;17.73;100.00
10921;BME280;5513;50.580;8.818;2023-05-29T07:31:54;99453.34;;;17.73;100.00
10921;BME280;5513;50.580;8.818;2023-05-29T07:34:22;99456.66;;;17.87;100.00
10921;BME280;5513;50.580;8.818;2023-05-29T07:36:57;99452.34;;;18.05;100.00
10921;BME280;5513;50.580;8.818;2023-05-29T07:39:27;99449.91;;;18.12;100.00
10921;BME280;5513;50.580;8.818;2023-05-29T07:41:57;99462.50;;;18.21;100.00
10921;BME280;5513;50.580;8.818;2023-05-29T07:44:26;99454.06;;;18.35;100.00
10921;BME280;5513;50.580;8.818;2023-05-29T07:46:54;99459.28;;;18.46;100.00
10921;BME280;5513;50.580;8.818;2023-05-29T07:49:23;99451.53;;;18.63;100.00
10921;BME280;5513;50.580;8.818;2023-05-29T07:51:51;99448.84;;;18.43;100.00
10921;BME280;5513;50.580;8.818;2023-05-29T07:54:20;99454.31;;;18.42;100.00
10921;BME280;5513;50.580;8.818;2023-05-29T07:56:49;99453.63;;;18.49;100.00
10921;BME280;5513;50.580;8.818;2023-05-29T07:59:19;99448.13;;;18.80;100.00
10921;BME280;5513;50.580;8.818;2023-05-29T08:01:47;99449.94;;;18.89;100.00
10921;BME280;5513;50.580;8.818;2023-05-29T08:04:16;99445.28;;;18.91;100.00
10921;BME280;5513;50.580;8.818;2023-05-29T08:06:44;99449.19;;;19.16;100.00
10921;BME280;5513;50.580;8.818;2023-05-29T08:09:13;99449.88;;;19.18;100.00
10921;BME280;5513;50.580;8.818;2023-05-29T08:11:41;99452.88;;;19.52;100.00
10921;BME280;5513;50.580;8.818;2023-05-29T08:14:11;99456.84;;;19.48;100.00
10921;BME280;5513;50.580;8.818;2023-05-29T08:16:41;99460.31;;;19.68;100.00
10921;BME280;5513;50.580;8.818;2023-05-29T08:19:10;99461.03;;;19.70;100.00
10921;BME280;5513;50.580;8.818;2023-05-29T08:21:38;99465.16;;;19.92;100.00
10921;BME280;5513;50.580;8.818;2023-05-29T08:24:07;99465.47;;;19.89;100.00
10921;BME280;5513;50.580;8.818;2023-05-29T08:26:36;99462.09;;;20.05;100.00
10921;BME280;5513;50.580;8.818;2023-05-29T08:29:04;99465.41;;;20.16;100.00
10921;BME280;5513;50.580;8.818;2023-05-29T08:31:34;99458.66;;;20.12;100.00
10921;BME280;5513;50.580;8.818;2023-05-29T08:34:04;99461.91;;;20.34;100.00
10921;BME280;5513;50.580;8.818;2023-05-29T08:36:33;99464.16;;;20.38;100.00
10921;BME280;5513;50.580;8.818;2023-05-29T08:39:01;99462.34;;;20.56;100.00
10921;BME280;5513;50.580;8.818;2023-05-29T08:41:39;99461.53;;;20.82;100.00
10921;BME280;5513;50.580;8.818;2023-05-29T08:44:13;99458.66;;;21.01;100.00
10921;BME280;5513;50.580;8.818;2023-05-29T08:46:43;99456.97;;;21.00;100.00
10921;BME280;5513;50.580;8.818;2023-05-29T08:49:16;99462.09;;;20.68;100.00
10921;BME280;5513;50.580;8.818;2023-05-29T08:51:47;99454.22;;;20.74;99.80
10921;BME280;5513;50.580;8.818;2023-05-29T08:54:18;99460.44;;;20.93;95.02
10921;BME280;5513;50.580;8.818;2023-05-29T08:56:47;99449.47;;;21.12;93.52
10921;BME280;5513;50.580;8.818;2023-05-29T08:59:15;99457.22;;;21.33;92.65
10921;BME280;5513;50.580;8.818;2023-05-29T09:01:44;99458.63;;;21.45;94.61
10921;BME280;5513;50.580;8.818;2023-05-29T09:04:14;99459.03;;;21.58;93.57
10921;BME280;5513;50.580;8.818;2023-05-29T09:06:44;99454.56;;;21.75;91.23
10921;BME280;5513;50.580;8.818;2023-05-29T09:09:15;99446.84;;;21.88;94.14
10921;BME280;5513;50.580;8.818;2023-05-29T09:11:44;99450.78;;;21.60;95.68
10921;BME280;5513;50.580;8.818;2023-05-29T09:14:36;99443.44;;;21.78;92.59
10921;BME280;5513;50.580;8.818;2023-05-29T09:17:07;99454.72;;;21.74;87.32
10921;BME280;5513;50.580;8.818;2023-05-29T09:19:39;99446.69;;;21.82;85.99
10921;BME280;5513;50.580;8.818;2023-05-29T09:22:10;99441.06;;;22.17;81.37
10921;BME280;5513;50.580;8.818;2023-05-29T09:24:43;99445.13;;;22.13;81.41
10921;BME280;5513;50.580;8.818;2023-05-29T09:27:14;99446.53;;;22.42;85.43
10921;BME280;5513;50.580;8.818;2023-05-29T09:29:44;99438.09;;;22.53;89.36
10921;BME280;5513;50.580;8.818;2023-05-29T09:32:15;99447.53;;;22.57;79.04
10921;BME280;5513;50.580;8.818;2023-05-29T09:34:47;99439.09;;;22.44;82.18
10921;BME280;5513;50.580;8.818;2023-05-29T09:37:15;99442.47;;;22.62;79.94
10921;BME280;5513;50.580;8.818;2023-05-29T09:39:48;99443.84;;;22.91;69.89
10921;BME280;5513;50.580;8.818;2023-05-29T09:42:18;99436.06;;;22.79;70.14
10921;BME280;5513;50.580;8.818;2023-05-29T09:44:49;99447.34;;;23.16;71.78
10921;BME280;5513;50.580;8.818;2023-05-29T09:47:21;99439.34;;;23.47;66.89
10921;BME280;5513;50.580;8.818;2023-05-29T09:49:50;99436.28;;;23.66;66.69
10921;BME280;5513;50.580;8.818;2023-05-29T09:52:21;99439.41;;;23.86;65.17
10921;BME280;5513;50.580;8.818;2023-05-29T09:54:50;99448.41;;;23.70;64.01
10921;BME280;5513;50.580;8.818;2023-05-29T09:57:20;99442.03;;;23.55;65.28
10921;BME280;5513;50.580;8.818;2023-05-29T09:59:52;99442.63;;;24.12;66.28
10921;BME280;5513;50.580;8.818;2023-05-29T10:02:20;99439.66;;;23.99;69.18
10921;BME280;5513;50.580;8.818;2023-05-29T10:04:53;99442.31;;;23.76;69.23
10921;BME280;5513;50.580;8.818;2023-05-29T10:07:25;99441.53;;;23.59;71.25
10921;BME280;5513;50.580;8.818;2023-05-29T10:09:59;99443.34;;;24.06;69.28
10921;BME280;5513;50.580;8.818;2023-05-29T10:12:29;99444.78;;;24.25;68.21
10921;BME280;5513;50.580;8.818;2023-05-29T10:14:59;99443.94;;;24.24;64.47
10921;BME280;5513;50.580;8.818;2023-05-29T10:17:33;99438.56;;;24.16;61.91
10921;BME280;5513;50.580;8.818;2023-05-29T10:20:09;99439.97;;;24.58;61.02
10921;BME280;5513;50.580;8.818;2023-05-29T10:22:45;99447.63;;;24.77;60.27
10921;BME280;5513;50.580;8.818;2023-05-29T10:25:18;99444.59;;;24.95;61.98
10921;BME280;5513;50.580;8.818;2023-05-29T10:27:47;99439.63;;;24.61;63.16
10921;BME280;5513;50.580;8.818;2023-05-29T10:30:26;99449.53;;;24.23;63.62
10921;BME280;5513;50.580;8.818;2023-05-29T10:33:02;99447.09;;;24.82;65.10
10921;BME280;5513;50.580;8.818;2023-05-29T10:35:43;99444.94;;;24.54;61.92
10921;BME280;5513;50.580;8.818;2023-05-29T10:38:14;99443.66;;;24.65;62.65
10921;BME280;5513;50.580;8.818;2023-05-29T10:40:43;99436.88;;;24.46;64.01
10921;BME280;5513;50.580;8.818;2023-05-29T10:43:30;99447.09;;;24.36;62.21
10921;BME280;5513;50.580;8.818;2023-05-29T10:45:59;99440.31;;;24.78;53.17
10921;BME280;5513;50.580;8.818;2023-05-29T10:48:41;99435.56;;;25.18;55.43
10921;BME280;5513;50.580;8.818;2023-05-29T10:51:28;99434.75;;;25.61;54.05
10921;BME280;5513;50.580;8.818;2023-05-29T10:53:58;99436.34;;;25.41;55.62
10921;BME280;5513;50.580;8.818;2023-05-29T10:56:28;99432.25;;;25.75;56.67
10921;BME280;5513;50.580;8.818;2023-05-29T10:58:58;99431.78;;;25.71;55.34
10921;BME280;5513;50.580;8.818;2023-05-29T11:01:30;99428.41;;;25.39;55.72
10921;BME280;5513;50.580;8.818;2023-05-29T11:04:27;99429.31;;;25.47;53.81
10921;BME280;5513;50.580;8.818;2023-05-29T11:07:00;99429.91;;;25.72;54.08
10921;BME280;5513;50.580;8.818;2023-05-29T11:09:34;99429.69;;;26.24;50.28
10921;BME280;5513;50.580;8.818;2023-05-29T11:12:14;99428.25;;;26.86;48.16
10921;BME280;5513;50.580;8.818;2023-05-29T11:14:56;99424.38;;;27.23;49.18
10921;BME280;5513;50.580;8.818;2023-05-29T11:17:34;99421.34;;;26.40;47.95
10921;BME280;5513;50.580;8.818;2023-05-29T11:20:17;99428.94;;;25.64;47.64
10921;BME280;5513;50.580;8.818;2023-05-29T11:23:00;99428.41;;;25.84;49.52
10921;BME280;5513;50.580;8.818;2023-05-29T11:25:33;99423.09;;;26.12;48.53
10921;BME280;5513;50.580;8.818;2023-05-29T11:28:02;99429.03;;;26.01;45.18
10921;BME280;5513;50.580;8.818;2023-05-29T11:30:44;99416.19;;;26.31;44.07
10921;BME280;5513;50.580;8.818;2023-05-29T11:33:20;99419.34;;;26.34;43.63
10921;BME280;5513;50.580;8.818;2023-05-29T11:36:05;99421.84;;;26.50;43.45
10921;BME280;5513;50.580;8.818;2023-05-29T11:38:37;99417.16;;;26.23;42.71
10921;BME280;5513;50.580;8.818;2023-05-29T11:41:05;99413.31;;;26.75;41.34
10921;BME280;5513;50.580;8.818;2023-05-29T11:43:34;99421.03;;;26.99;38.62
10921;BME280;5513;50.580;8.818;2023-05-29T11:46:16;99417.34;;;27.70;39.37
10921;BME280;5513;50.580;8.818;2023-05-29T11:48:46;99421.06;;;27.27;39.90
10921;BME280;5513;50.580;8.818;2023-05-29T11:51:14;99412.00;;;27.55;39.79
10921;BME280;5513;50.580;8.818;2023-05-29T11:53:46;99402.75;;;27.49;40.76
10921;BME280;5513;50.580;8.818;2023-05-29T11:56:15;99407.38;;;27.14;39.26
10921;BME280;5513;50.580;8.818;2023-05-29T11:58:44;99405.91;;;26.90;41.35
10921;BME280;5513;50.580;8.818;2023-05-29T12:01:16;99407.94;;;27.72;39.80
10921;BME280;5513;50.580;8.818;2023-05-29T12:03:47;99400.03;;;27.84;40.40
10921;BME280;5513;50.580;8.818;2023-05-29T12:06:16;99406.13;;;27.92;39.66
10921;BME280;5513;50.580;8.818;2023-05-29T12:08:51;99406.06;;;27.79;39.79
10921;BME280;5513;50.580;8.818;2023-05-29T12:11:23;99402.41;;;28.07;38.71
10921;BME280;5513;50.580;8.818;2023-05-29T12:13:55;99404.84;;;28.63;37.81
10921;BME280;5513;50.580;8.818;2023-05-29T12:16:24;99400.84;;;28.52;38.11
10921;BME280;5513;50.580;8.818;2023-05-29T12:18:53;99400.59;;;28.34;37.74
10921;BME280;5513;50.580;8.818;2023-05-29T12:21:22;99396.41;;;28.31;38.25
10921;BME280;5513;50.580;8.818;2023-05-29T12:23:53;99390.41;;;27.94;38.60
10921;BME280;5513;50.580;8.818;2023-05-29T12:26:39;99395.00;;;27.46;38.90
10921;BME280;5513;50.580;8.818;2023-05-29T12:29:08;99388.16;;;26.94;39.18
10921;BME280;5513;50.580;8.818;2023-05-29T12:31:36;99395.56;;;27.35;40.05
10921;BME280;5513;50.580;8.818;2023-05-29T12:34:08;99392.88;;;28.50;38.33
10921;BME280;5513;50.580;8.818;2023-05-29T12:36:39;99396.25;;;28.79;37.42
10921;BME280;5513;50.580;8.818;2023-05-29T12:39:09;99388.66;;;28.28;38.33
10921;BME280;5513;50.580;8.818;2023-05-29T12:41:38;99392.13;;;27.54;37.25
10921;BME280;5513;50.580;8.818;2023-05-29T12:44:07;99398.78;;;27.86;37.09
10921;BME280;5513;50.580;8.818;2023-05-29T12:46:37;99392.00;;;28.37;35.97
10921;BME280;5513;50.580;8.818;2023-05-29T12:49:17;99392.00;;;27.69;38.48
10921;BME280;5513;50.580;8.818;2023-05-29T12:51:49;99389.53;;;28.75;36.11
10921;BME280;5513;50.580;8.818;2023-05-29T12:54:21;99391.00;;;28.58;37.55
10921;BME280;5513;50.580;8.818;2023-05-29T12:56:50;99393.31;;;28.87;36.75
10921;BME280;5513;50.580;8.818;2023-05-29T12:59:18;99393.28;;;29.14;35.70
10921;BME280;5513;50.580;8.818;2023-05-29T13:01:47;99390.97;;;28.31;36.82
10921;BME280;5513;50.580;8.818;2023-05-29T13:04:15;99398.53;;;28.56;36.46
10921;BME280;5513;50.580;8.818;2023-05-29T13:06:44;99396.41;;;29.50;34.16
10921;BME280;5513;50.580;8.818;2023-05-29T13:09:12;99399.84;;;28.99;36.38
10921;BME280;5513;50.580;8.818;2023-05-29T13:11:43;99398.56;;;28.69;36.64
10921;BME280;5513;50.580;8.818;2023-05-29T13:14:11;99408.00;;;29.19;35.01
10921;BME280;5513;50.580;8.818;2023-05-29T13:16:39;99407.16;;;28.72;36.19
10921;BME280;5513;50.580;8.818;2023-05-29T13:19:08;99399.59;;;29.21;35.75
10921;BME280;5513;50.580;8.818;2023-05-29T13:21:38;99406.06;;;29.46;35.09